Forest Row, United Kingdom
Current Conditions -  °F | °C
As of 3:50 PM on Saturday 25 Oct 2014 (Local Time) from EGKK Reporting Station
Broken Clouds Broken Clouds  
Wind Chill: 57°   Ceiling: 4300
Heat Index: 57°   Visibility: 6mi
Dew Point: 46°   Wind: 7mph
Humidity: 67%   Direction: 220°SW
Pressure: 30.09"   Gusts: NA
Location:  51.1°N, 0.03°E
Report Text: EGKK 251450Z 22006KT 9999 BKN043 14/08 Q1019
Loading
Personal Weather Stations






























Interactive Weather Map
Tropical Storm Tracking
New forecast layout! Learn more

10-Day Weather Forecast

Advertisements
Track Severe Weather on mobile